Time;durP1;ratioP1;P1;durP2;ratioP2;P2;SDS_P1;SDS_P2;PMS_P1;PMS_P2;Temp;Humidity;BMP_temperature;BMP_pressure;BME280_temperature;BME280_humidity;BME280_pressure;Samples;Min_cycle;Max_cycle;Signal;HPM_P1;HPM_P2
2020/12/22 00:02:24;;;;;;;29.27;19.77;;;6.50;99.90;;;;;;5072452;28;20044;-49
2020/12/22 00:04:51;;;;;;;29.13;18.05;;;6.50;99.90;;;;;;5073294;28;20048;-50
2020/12/22 00:07:18;;;;;;;30.23;17.83;;;6.40;99.90;;;;;;5073348;28;20049;-50
2020/12/22 00:09:44;;;;;;;28.98;17.05;;;6.40;99.90;;;;;;5070868;28;20040;-49
2020/12/22 00:12:16;;;;;;;28.92;18.38;;;6.40;99.90;;;;;;5071249;28;20072;-51
2020/12/22 00:14:44;;;;;;;27.48;16.80;;;6.40;99.90;;;;;;5066610;28;20045;-51
2020/12/22 00:17:10;;;;;;;25.88;18.30;;;6.40;99.90;;;;;;5070350;28;20059;-49
2020/12/22 00:19:37;;;;;;;23.85;16.83;;;6.40;99.90;;;;;;5072133;28;20045;-50
2020/12/22 00:22:04;;;;;;;28.88;19.17;;;6.40;99.90;;;;;;5068664;28;20460;-49
2020/12/22 00:24:30;;;;;;;25.67;18.13;;;6.50;99.90;;;;;;5057379;28;20056;-50
2020/12/22 00:26:56;;;;;;;23.73;17.83;;;6.50;99.90;;;;;;5075276;28;20052;-50
2020/12/22 00:29:23;;;;;;;31.52;19.73;;;6.60;99.90;;;;;;5070192;28;20044;-49
2020/12/22 00:31:49;;;;;;;25.67;16.38;;;6.50;99.90;;;;;;5071434;28;20060;-49
2020/12/22 00:34:16;;;;;;;26.55;17.85;;;6.50;99.90;;;;;;5070844;28;20048;-50
2020/12/22 00:36:42;;;;;;;33.38;19.75;;;6.50;99.90;;;;;;5066830;28;20045;-49
2020/12/22 00:39:09;;;;;;;36.55;22.67;;;6.50;99.90;;;;;;5067476;28;20060;-49
2020/12/22 00:41:35;;;;;;;34.95;21.45;;;6.50;99.90;;;;;;5071565;28;20048;-49
2020/12/22 00:44:02;;;;;;;39.38;21.05;;;6.50;99.90;;;;;;5063579;28;20052;-49
2020/12/22 00:46:29;;;;;;;34.38;22.13;;;6.40;99.90;;;;;;5061656;28;20056;-49
2020/12/22 00:48:55;;;;;;;34.42;22.13;;;6.40;99.90;;;;;;5084883;28;20055;-50
2020/12/22 00:51:23;;;;;;;35.05;19.95;;;6.30;99.90;;;;;;5070574;28;20044;-49
2020/12/22 00:53:50;;;;;;;32.20;18.15;;;6.40;99.90;;;;;;5066778;28;20052;-51
2020/12/22 00:56:17;;;;;;;28.67;19.63;;;6.40;99.90;;;;;;5072147;28;20133;-50
2020/12/22 00:58:48;;;;;;;37.67;20.65;;;6.40;99.90;;;;;;5085913;28;20076;-50
2020/12/22 01:01:15;;;;;;;30.52;19.50;;;6.40;99.90;;;;;;5072723;28;20485;-49
2020/12/22 01:03:42;;;;;;;32.35;18.98;;;6.40;99.90;;;;;;5073624;28;20469;-49
2020/12/22 01:06:09;;;;;;;28.75;18.75;;;6.40;99.90;;;;;;5071640;28;20043;-49
2020/12/22 01:08:35;;;;;;;28.67;18.27;;;6.40;99.90;;;;;;5070293;28;20544;-50
2020/12/22 01:11:02;;;;;;;24.42;17.15;;;6.40;99.90;;;;;;5088278;28;20058;-49
2020/12/22 01:13:30;;;;;;;29.35;17.38;;;6.40;99.90;;;;;;5055723;28;20052;-49
2020/12/22 01:15:57;;;;;;;26.88;17.42;;;6.40;99.90;;;;;;5070293;28;20048;-49
2020/12/22 01:18:41;;;;;;;;;;;6.40;99.90;;;;;;5069384;28;20580;-50
2020/12/22 01:21:07;;;;;;;33.53;19.48;;;6.40;99.90;;;;;;5070884;28;19923;-49
2020/12/22 01:23:35;;;;;;;30.60;20.58;;;6.40;99.90;;;;;;5057446;28;20056;-49
2020/12/22 01:26:03;;;;;;;26.45;18.70;;;6.40;99.90;;;;;;5068198;28;20131;-52
2020/12/22 01:28:30;;;;;;;32.47;19.08;;;6.40;99.90;;;;;;5071452;28;20518;-49
2020/12/22 01:30:56;;;;;;;36.03;21.38;;;6.40;99.90;;;;;;5069147;28;20123;-49
2020/12/22 01:33:23;;;;;;;35.67;21.77;;;6.40;99.90;;;;;;5071087;28;20064;-49
2020/12/22 01:35:49;;;;;;;34.38;22.75;;;6.30;99.90;;;;;;5071046;28;20059;-49
2020/12/22 01:38:15;;;;;;;30.30;19.10;;;6.20;99.90;;;;;;5071738;28;20485;-49
2020/12/22 01:40:49;;;;;;;25.27;16.83;;;6.20;99.90;;;;;;5065938;28;20045;-49
2020/12/22 01:43:17;;;;;;;26.92;17.73;;;6.10;99.90;;;;;;5069813;28;20054;-50
2020/12/22 01:45:44;;;;;;;27.85;20.45;;;6.30;99.90;;;;;;5055149;28;20044;-49
2020/12/22 01:48:11;;;;;;;28.70;21.10;;;6.30;99.90;;;;;;5070988;28;20049;-50
2020/12/22 01:50:37;;;;;;;29.70;18.92;;;6.30;99.90;;;;;;5082398;28;20049;-49
2020/12/22 01:53:04;;;;;;;30.60;19.58;;;6.40;99.90;;;;;;5071160;28;20048;-49
2020/12/22 01:55:31;;;;;;;30.20;19.45;;;6.40;99.90;;;;;;5071256;28;20424;-50
2020/12/22 01:57:57;;;;;;;28.63;20.13;;;6.40;99.90;;;;;;5070110;28;20131;-49
2020/12/22 02:00:24;;;;;;;29.27;19.83;;;6.40;99.90;;;;;;5069920;28;20048;-49
2020/12/22 02:02:51;;;;;;;31.40;19.73;;;6.40;99.90;;;;;;5070299;28;20049;-50
2020/12/22 02:05:17;;;;;;;33.85;21.25;;;6.40;99.90;;;;;;5071435;28;20040;-49
2020/12/22 02:07:44;;;;;;;32.80;20.65;;;6.40;99.90;;;;;;5070253;28;20056;-50
2020/12/22 02:10:11;;;;;;;33.88;21.58;;;6.40;99.90;;;;;;5070407;28;20048;-50
2020/12/22 02:12:40;;;;;;;32.50;20.80;;;6.50;99.90;;;;;;5072887;28;20052;-49
2020/12/22 02:15:07;;;;;;;27.42;19.25;;;6.40;99.90;;;;;;5065450;28;20485;-49
2020/12/22 02:17:35;;;;;;;32.05;20.55;;;6.40;99.90;;;;;;5066954;28;20512;-51
2020/12/22 02:20:03;;;;;;;32.88;18.67;;;6.50;99.90;;;;;;5069723;28;20048;-50
2020/12/22 02:22:30;;;;;;;36.80;22.17;;;6.50;99.90;;;;;;5063332;28;20076;-49
2020/12/22 02:24:57;;;;;;;32.90;22.38;;;6.50;99.90;;;;;;5054900;28;20452;-50
2020/12/22 02:27:24;;;;;;;32.05;20.38;;;6.50;99.90;;;;;;5069456;28;20041;-49
2020/12/22 02:29:50;;;;;;;32.75;21.42;;;6.50;99.90;;;;;;5071710;28;21580;-50
2020/12/22 02:32:17;;;;;;;32.50;21.60;;;6.50;99.90;;;;;;5064113;28;20051;-50
2020/12/22 02:34:44;;;;;;;35.50;20.98;;;6.40;99.90;;;;;;5067335;28;20052;-50
2020/12/22 02:37:10;;;;;;;27.38;19.55;;;6.40;99.90;;;;;;5072033;28;20075;-50
2020/12/22 02:39:37;;;;;;;29.08;19.55;;;6.40;99.90;;;;;;5069455;28;20044;-50
2020/12/22 02:42:03;;;;;;;29.85;19.90;;;6.30;99.90;;;;;;5064679;28;20048;-50
2020/12/22 02:44:31;;;;;;;29.52;20.52;;;6.20;99.90;;;;;;5061566;28;20057;-50
2020/12/22 02:46:57;;;;;;;30.35;19.83;;;6.20;99.90;;;;;;5059149;28;20040;-51
2020/12/22 02:49:43;;;;;;;27.73;19.52;;;6.20;99.90;;;;;;5068821;28;20076;-50
2020/12/22 02:52:10;;;;;;;28.20;18.80;;;6.30;99.90;;;;;;5069608;28;20051;-51
2020/12/22 02:54:37;;;;;;;28.67;19.13;;;6.30;99.90;;;;;;5068754;28;20059;-50
2020/12/22 02:57:04;;;;;;;28.80;19.75;;;6.30;99.90;;;;;;5067949;28;20056;-51
2020/12/22 02:59:30;;;;;;;27.75;19.10;;;6.40;99.90;;;;;;5070286;28;20105;-49
2020/12/22 03:01:57;;;;;;;32.47;19.02;;;6.40;99.90;;;;;;5069630;28;20064;-50
2020/12/22 03:04:24;;;;;;;29.13;19.85;;;6.40;99.90;;;;;;5067357;28;20470;-49
2020/12/22 03:06:51;;;;;;;33.38;20.23;;;6.40;99.90;;;;;;5064294;28;20072;-50
2020/12/22 03:09:18;;;;;;;30.75;20.30;;;6.40;99.90;;;;;;5067087;28;20431;-50
2020/12/22 03:11:44;;;;;;;33.85;20.02;;;6.40;99.90;;;;;;5057352;28;20048;-50
2020/12/22 03:14:10;;;;;;;29.48;20.60;;;6.40;99.90;;;;;;5063382;28;20048;-49
2020/12/22 03:16:37;;;;;;;26.52;19.95;;;6.30;99.90;;;;;;5042029;28;688235;-50
2020/12/22 03:19:03;;;;;;;33.80;21.58;;;6.20;99.90;;;;;;5069856;28;20049;-49
2020/12/22 03:21:30;;;;;;;28.75;21.35;;;6.20;99.90;;;;;;5060790;28;20052;-50
2020/12/22 03:23:57;;;;;;;29.92;18.73;;;6.20;99.90;;;;;;5067856;28;20060;-50
2020/12/22 03:26:23;;;;;;;31.67;19.95;;;6.20;99.90;;;;;;5068979;28;20412;-50
2020/12/22 03:28:50;;;;;;;30.00;20.25;;;6.20;99.90;;;;;;5071988;28;20047;-49
2020/12/22 03:31:16;;;;;;;28.55;19.80;;;6.20;99.90;;;;;;5070561;28;20393;-50
2020/12/22 03:33:43;;;;;;;26.65;19.52;;;6.20;99.90;;;;;;5068562;28;20052;-49
2020/12/22 03:36:09;;;;;;;31.42;19.27;;;6.20;99.90;;;;;;5068541;28;20045;-49
2020/12/22 03:38:36;;;;;;;30.48;20.27;;;6.10;99.90;;;;;;5067666;28;20374;-50
2020/12/22 03:41:03;;;;;;;34.38;21.15;;;6.10;99.90;;;;;;5070352;28;20052;-50
2020/12/22 03:43:30;;;;;;;32.10;20.20;;;6.20;99.90;;;;;;5072033;28;20055;-50
2020/12/22 03:45:57;;;;;;;26.52;19.13;;;6.20;99.90;;;;;;5059504;28;20103;-50
2020/12/22 03:48:25;;;;;;;25.55;18.88;;;6.20;99.90;;;;;;5065063;28;20501;-51
2020/12/22 03:50:53;;;;;;;26.27;19.05;;;6.20;99.90;;;;;;5055622;28;20444;-50
2020/12/22 03:53:19;;;;;;;35.40;21.20;;;6.30;99.90;;;;;;5069944;28;20453;-50
2020/12/22 03:55:46;;;;;;;25.60;17.88;;;6.20;99.90;;;;;;5068804;28;20504;-50
2020/12/22 03:58:13;;;;;;;31.15;20.33;;;6.20;99.90;;;;;;5069659;28;20461;-50
2020/12/22 04:00:40;;;;;;;26.67;20.15;;;6.30;99.90;;;;;;5067364;28;20045;-51
2020/12/22 04:03:06;;;;;;;28.10;20.83;;;6.30;99.90;;;;;;5069958;28;20053;-50
2020/12/22 04:05:33;;;;;;;24.23;18.23;;;6.30;99.90;;;;;;5067577;28;20044;-51
2020/12/22 04:07:59;;;;;;;27.60;18.92;;;6.30;99.90;;;;;;5070403;28;20051;-50
2020/12/22 04:10:26;;;;;;;32.17;20.55;;;6.30;99.90;;;;;;5069049;28;20048;-50
2020/12/22 04:12:52;;;;;;;29.50;20.98;;;6.20;99.90;;;;;;5070779;28;20056;-51
2020/12/22 04:15:19;;;;;;;29.65;20.48;;;6.20;99.90;;;;;;5072629;28;20048;-51
2020/12/22 04:17:45;;;;;;;30.42;20.85;;;6.20;99.90;;;;;;5069805;28;20417;-50
2020/12/22 04:20:12;;;;;;;28.05;20.23;;;6.10;99.90;;;;;;5072291;28;20393;-51
2020/12/22 04:22:39;;;;;;;26.73;20.50;;;6.10;99.90;;;;;;5070691;28;20131;-50
2020/12/22 04:25:06;;;;;;;25.58;19.08;;;6.10;99.90;;;;;;5060012;28;20056;-50
2020/12/22 04:27:32;;;;;;;25.80;18.90;;;6.10;99.90;;;;;;5071429;28;20056;-53
2020/12/22 04:29:59;;;;;;;34.72;21.60;;;6.20;99.90;;;;;;5075374;28;20536;-50
2020/12/22 04:32:26;;;;;;;28.73;21.27;;;6.20;99.90;;;;;;5071766;28;20044;-51
2020/12/22 04:34:54;;;;;;;27.85;21.08;;;6.20;99.90;;;;;;5071980;28;20051;-50
2020/12/22 04:37:20;;;;;;;23.80;19.98;;;6.20;99.90;;;;;;5079504;28;20048;-51
2020/12/22 04:39:47;;;;;;;25.20;21.45;;;6.20;99.90;;;;;;5070526;28;20466;-50
2020/12/22 04:42:16;;;;;;;25.92;19.67;;;6.30;99.90;;;;;;5077075;28;20045;-51
2020/12/22 04:44:44;;;;;;;23.83;17.52;;;6.30;99.90;;;;;;5072374;28;20363;-50
2020/12/22 04:47:11;;;;;;;24.83;18.98;;;6.30;99.90;;;;;;5071013;28;20041;-50
2020/12/22 04:49:41;;;;;;;23.15;16.83;;;6.30;99.90;;;;;;5069247;28;20127;-50
2020/12/22 04:52:08;;;;;;;26.58;19.80;;;6.30;99.90;;;;;;5054383;28;20067;-51
2020/12/22 04:54:37;;;;;;;28.52;20.52;;;6.30;99.90;;;;;;5088111;28;20083;-52
2020/12/22 04:57:05;;;;;;;22.25;16.75;;;6.30;99.90;;;;;;5065827;28;20102;-50
2020/12/22 04:59:37;;;;;;;30.85;23.52;;;6.30;99.90;;;;;;5065958;28;20461;-50
2020/12/22 05:02:05;;;;;;;22.83;20.00;;;6.30;99.90;;;;;;5071159;28;20507;-50
2020/12/22 05:04:34;;;;;;;29.52;20.75;;;6.30;99.90;;;;;;5072578;28;20107;-50
2020/12/22 05:07:00;;;;;;;28.70;20.92;;;6.30;99.90;;;;;;5072756;28;20048;-50
2020/12/22 05:09:27;;;;;;;33.47;23.48;;;6.30;99.90;;;;;;5072593;28;20052;-50
2020/12/22 05:11:54;;;;;;;34.35;24.13;;;6.30;99.90;;;;;;5064327;28;20045;-50
2020/12/22 05:14:20;;;;;;;26.02;19.75;;;6.30;99.90;;;;;;5070391;28;20056;-50
2020/12/22 05:16:47;;;;;;;27.35;22.13;;;6.30;99.90;;;;;;5071283;28;20058;-51
2020/12/22 05:19:18;;;;;;;29.73;22.33;;;6.30;99.90;;;;;;5070196;28;20132;-50
2020/12/22 05:21:46;;;;;;;27.30;21.90;;;6.30;99.90;;;;;;5071457;28;20044;-51
2020/12/22 05:24:14;;;;;;;28.77;21.27;;;6.30;99.90;;;;;;5065289;28;20048;-51
2020/12/22 05:26:43;;;;;;;25.92;20.23;;;6.30;99.90;;;;;;5064906;28;20043;-50
2020/12/22 05:29:11;;;;;;;29.85;20.45;;;6.30;99.90;;;;;;5075670;28;20728;-50
2020/12/22 05:32:04;;;;;;;26.38;20.08;;;6.30;99.90;;;;;;5053400;28;20048;-50
2020/12/22 05:34:30;;;;;;;30.00;19.75;;;6.40;99.90;;;;;;5062946;28;20067;-50
2020/12/22 05:36:59;;;;;;;25.33;19.27;;;6.30;99.90;;;;;;5074026;28;20040;-50
2020/12/22 05:39:26;;;;;;;26.70;19.10;;;6.30;99.90;;;;;;5069876;28;20079;-50
2020/12/22 05:41:53;;;;;;;26.20;20.48;;;6.40;99.90;;;;;;5072759;28;20056;-50
2020/12/22 05:44:23;;;;;;;39.72;23.60;;;6.40;99.90;;;;;;5070512;28;20044;-50
2020/12/22 05:46:51;;;;;;;35.97;24.85;;;6.30;99.90;;;;;;5084113;28;20040;-50
2020/12/22 05:49:18;;;;;;;43.33;27.55;;;6.30;99.90;;;;;;5071074;28;20045;-49
2020/12/22 05:51:47;;;;;;;31.10;21.90;;;6.20;99.90;;;;;;5069598;28;20044;-50
2020/12/22 05:54:15;;;;;;;30.58;22.02;;;6.20;99.90;;;;;;5073685;28;20397;-50
2020/12/22 05:56:44;;;;;;;54.55;23.33;;;6.20;99.90;;;;;;5069771;28;20052;-50
2020/12/22 05:59:21;;;;;;;33.97;23.33;;;6.20;99.90;;;;;;5056398;28;20171;-50
2020/12/22 06:01:48;;;;;;;25.95;20.50;;;6.20;99.90;;;;;;5067056;28;20044;-50
2020/12/22 06:04:19;;;;;;;32.78;20.75;;;6.20;99.90;;;;;;5078659;28;20048;-50
2020/12/22 06:06:46;;;;;;;30.20;22.02;;;6.20;99.90;;;;;;5060527;28;20045;-50
2020/12/22 06:09:14;;;;;;;26.35;19.35;;;6.30;99.90;;;;;;5061590;28;20473;-50
2020/12/22 06:11:41;;;;;;;30.40;22.65;;;6.30;99.90;;;;;;5057171;28;20052;-53
2020/12/22 06:14:08;;;;;;;40.17;24.42;;;6.30;99.90;;;;;;5069821;28;20051;-50
2020/12/22 06:16:34;;;;;;;37.25;25.10;;;6.20;99.90;;;;;;5067576;28;20056;-51
2020/12/22 06:19:01;;;;;;;39.15;27.25;;;6.20;99.90;;;;;;5064933;28;20055;-50
2020/12/22 06:21:28;;;;;;;38.85;26.92;;;6.20;99.90;;;;;;5061357;28;20053;-50
2020/12/22 06:23:56;;;;;;;54.08;33.60;;;6.20;99.90;;;;;;5070352;28;20056;-50
2020/12/22 06:26:22;;;;;;;46.78;30.25;;;6.30;99.90;;;;;;5069696;28;20071;-51
2020/12/22 06:28:49;;;;;;;43.03;27.15;;;6.20;99.90;;;;;;5066765;28;20055;-50
2020/12/22 06:31:19;;;;;;;46.85;29.20;;;6.20;99.90;;;;;;5068133;28;20079;-50
2020/12/22 06:33:47;;;;;;;62.00;34.47;;;6.20;99.90;;;;;;5061976;28;20481;-50
2020/12/22 06:36:15;;;;;;;46.00;28.95;;;6.20;99.90;;;;;;5064623;28;20103;-50
2020/12/22 06:38:53;;;;;;;46.17;28.63;;;6.10;99.90;;;;;;5057147;28;20127;-51
2020/12/22 06:41:35;;;;;;;62.30;29.80;;;6.10;99.90;;;;;;5060545;28;20080;-50
2020/12/22 06:44:23;;;;;;;97.72;31.85;;;6.20;99.90;;;;;;5064350;28;20052;-52
2020/12/22 06:46:53;;;;;;;71.28;35.90;;;6.10;99.90;;;;;;5054902;28;20050;-50
2020/12/22 06:49:46;;;;;;;46.15;32.08;;;6.20;99.90;;;;;;5070775;28;20036;-50
2020/12/22 06:52:36;;;;;;;60.65;37.47;;;6.20;99.90;;;;;;5060988;28;20049;-50
2020/12/22 06:55:07;;;;;;;52.20;30.90;;;6.20;99.90;;;;;;5071447;28;20501;-50
2020/12/22 06:57:43;;;;;;;53.55;32.10;;;6.20;99.90;;;;;;5065649;28;20053;-50
2020/12/22 07:00:30;;;;;;;56.85;37.28;;;6.20;99.90;;;;;;5056419;28;20045;-53
2020/12/22 07:03:22;;;;;;;38.20;25.15;;;6.20;99.90;;;;;;5059636;28;20051;-50
2020/12/22 07:05:49;;;;;;;36.15;25.08;;;6.20;99.90;;;;;;5068258;28;20425;-51
2020/12/22 07:08:17;;;;;;;37.20;27.02;;;6.30;99.90;;;;;;5070176;28;20458;-52
2020/12/22 07:10:49;;;;;;;34.92;22.33;;;6.30;99.90;;;;;;5064377;28;20045;-46
2020/12/22 07:13:19;;;;;;;42.00;28.60;;;6.30;99.90;;;;;;5058878;28;20118;-48
2020/12/22 07:15:49;;;;;;;39.30;28.30;;;6.40;99.90;;;;;;5076523;28;20060;-49
2020/12/22 07:18:25;;;;;;;51.33;30.63;;;6.40;99.90;;;;;;5068502;28;20564;-43
2020/12/22 07:20:52;;;;;;;49.15;33.38;;;6.40;99.90;;;;;;5051599;28;20752;-43
2020/12/22 07:23:19;;;;;;;45.38;29.73;;;6.40;99.90;;;;;;5068100;28;20056;-43
2020/12/22 07:25:46;;;;;;;40.05;29.20;;;6.40;99.90;;;;;;5068800;28;20041;-44
2020/12/22 07:28:16;;;;;;;41.38;28.65;;;6.40;99.90;;;;;;5061172;28;20103;-44
2020/12/22 07:30:43;;;;;;;50.40;34.63;;;6.40;99.90;;;;;;5061379;28;20048;-45
2020/12/22 07:33:11;;;;;;;52.30;36.30;;;6.40;99.90;;;;;;5068967;28;20052;-44
2020/12/22 07:35:37;;;;;;;50.33;32.47;;;6.40;99.90;;;;;;5067847;28;20532;-44
2020/12/22 07:38:08;;;;;;;45.63;31.52;;;6.40;99.90;;;;;;5070106;28;20040;-44
2020/12/22 07:40:41;;;;;;;46.45;31.67;;;6.40;99.90;;;;;;5069644;28;20041;-43
2020/12/22 07:43:10;;;;;;;42.22;30.55;;;6.30;99.90;;;;;;5068276;28;20036;-44
2020/12/22 07:45:50;;;;;;;44.53;31.42;;;6.30;99.90;;;;;;5060300;28;20398;-44
2020/12/22 07:48:17;;;;;;;47.17;33.45;;;6.30;99.90;;;;;;5065760;28;20036;-43
2020/12/22 07:50:50;;;;;;;48.00;31.17;;;6.40;99.90;;;;;;5056981;28;20392;-43
2020/12/22 07:53:17;;;;;;;47.20;32.22;;;6.40;99.90;;;;;;5073732;28;20048;-44
2020/12/22 07:55:43;;;;;;;42.42;30.85;;;6.40;99.90;;;;;;5058959;28;20048;-43
2020/12/22 07:58:13;;;;;;;43.22;32.53;;;6.30;99.90;;;;;;5072192;28;20512;-44
2020/12/22 08:00:40;;;;;;;41.70;29.35;;;6.40;99.90;;;;;;5071521;28;20052;-43
2020/12/22 08:03:17;;;;;;;39.15;26.98;;;6.40;99.90;;;;;;5061920;28;20056;-44
2020/12/22 08:06:01;;;;;;;37.58;27.35;;;6.40;99.90;;;;;;5069719;28;20048;-44
2020/12/22 08:08:28;;;;;;;50.08;32.90;;;6.40;99.90;;;;;;5071080;28;20059;-44
2020/12/22 08:10:55;;;;;;;63.28;40.92;;;6.40;99.90;;;;;;5069750;28;20056;-43
2020/12/22 08:13:26;;;;;;;42.00;27.38;;;6.50;99.90;;;;;;5072105;28;20043;-43
2020/12/22 08:15:53;;;;;;;42.65;29.38;;;6.50;99.90;;;;;;5062117;28;20410;-44
2020/12/22 08:18:20;;;;;;;50.08;31.85;;;6.50;99.90;;;;;;5065061;28;20055;-43
2020/12/22 08:20:48;;;;;;;46.78;29.73;;;6.50;99.90;;;;;;5073512;28;20492;-43
2020/12/22 08:23:17;;;;;;;49.80;32.40;;;6.60;99.90;;;;;;5070370;28;20130;-43
2020/12/22 08:25:47;;;;;;;57.08;29.77;;;6.70;99.90;;;;;;5072760;28;20144;-44
2020/12/22 08:28:25;;;;;;;46.80;29.33;;;6.80;99.90;;;;;;5072900;28;20117;-44
2020/12/22 08:30:52;;;;;;;44.95;29.85;;;6.90;99.90;;;;;;5065494;28;20051;-44
2020/12/22 08:33:23;;;;;;;85.97;48.63;;;6.90;99.90;;;;;;5059811;28;20126;-43
2020/12/22 08:35:51;;;;;;;54.15;30.45;;;6.90;99.90;;;;;;5066351;28;20060;-43
2020/12/22 08:38:21;;;;;;;47.00;27.40;;;7.00;99.90;;;;;;5072465;28;20048;-44
2020/12/22 08:40:50;;;;;;;47.20;30.63;;;6.90;99.90;;;;;;5068430;28;20056;-43
2020/12/22 08:43:19;;;;;;;60.58;37.95;;;7.00;99.90;;;;;;5066370;28;20102;-43
2020/12/22 08:45:46;;;;;;;60.78;40.70;;;6.90;99.90;;;;;;5063054;28;20060;-43
2020/12/22 08:48:13;;;;;;;66.05;40.90;;;6.90;99.90;;;;;;5062613;28;20060;-44
2020/12/22 08:50:53;;;;;;;54.90;37.45;;;7.00;99.90;;;;;;5073475;28;20489;-43
2020/12/22 08:53:53;;;;;;;59.80;35.03;;;7.00;99.90;;;;;;5071136;28;20036;-43
2020/12/22 08:56:27;;;;;;;55.42;35.65;;;7.00;99.90;;;;;;5071582;28;20379;-44
2020/12/22 08:59:01;;;;;;;58.92;40.03;;;7.10;99.90;;;;;;5071827;28;20482;-44
2020/12/22 09:01:37;;;;;;;51.75;35.35;;;7.10;99.90;;;;;;5070602;28;20465;-43
2020/12/22 09:04:04;;;;;;;64.97;39.25;;;7.10;99.90;;;;;;5054719;28;20053;-43
2020/12/22 09:06:47;;;;;;;71.97;40.58;;;7.20;99.90;;;;;;5070268;28;20045;-44
2020/12/22 09:09:27;;;;;;;61.63;39.78;;;7.20;99.90;;;;;;5062474;28;20080;-44
2020/12/22 09:12:08;;;;;;;60.58;36.70;;;7.20;99.90;;;;;;5070701;28;20045;-44
2020/12/22 09:14:42;;;;;;;56.20;34.25;;;7.30;99.90;;;;;;5071296;28;20044;-43
2020/12/22 09:17:08;;;;;;;;;;;7.20;99.90;;;;;;5057446;28;20053;-43
2020/12/22 09:19:50;;;;;;;54.05;33.67;;;7.30;99.90;;;;;;5070784;28;19923;-43
2020/12/22 09:22:28;;;;;;;62.25;35.63;;;7.30;99.90;;;;;;5070174;28;20048;-43
2020/12/22 09:24:57;;;;;;;66.10;40.22;;;7.30;99.90;;;;;;5058357;28;20781;-44
2020/12/22 09:27:33;;;;;;;69.22;36.88;;;7.20;99.90;;;;;;5064221;28;20052;-45
2020/12/22 09:30:01;;;;;;;53.13;33.38;;;7.20;99.90;;;;;;5070747;28;20036;-43
2020/12/22 09:32:34;;;;;;;59.88;35.75;;;7.20;99.90;;;;;;5065590;28;20072;-43
2020/12/22 09:35:01;;;;;;;67.70;36.40;;;7.30;99.90;;;;;;5056990;28;20044;-43
2020/12/22 09:37:28;;;;;;;61.08;33.95;;;7.30;99.90;;;;;;5069995;28;20060;-44
2020/12/22 09:39:55;;;;;;;60.67;35.38;;;7.30;99.90;;;;;;5068941;28;20401;-44
2020/12/22 09:42:23;;;;;;;70.40;36.60;;;7.30;99.90;;;;;;5071480;28;20375;-43
2020/12/22 09:44:51;;;;;;;64.30;34.45;;;7.30;99.90;;;;;;5069358;28;20055;-44
2020/12/22 09:47:18;;;;;;;58.28;32.78;;;7.30;99.90;;;;;;5052999;28;20049;-43
2020/12/22 09:49:45;;;;;;;62.47;35.42;;;7.40;99.90;;;;;;5069545;28;20051;-43
2020/12/22 09:52:15;;;;;;;71.22;38.65;;;7.40;99.90;;;;;;5069639;28;20429;-44
2020/12/22 09:54:42;;;;;;;65.97;36.13;;;7.50;99.90;;;;;;5070935;28;20040;-43
2020/12/22 09:57:09;;;;;;;63.85;34.95;;;7.50;99.90;;;;;;5063293;28;20140;-43
2020/12/22 09:59:36;;;;;;;66.05;38.95;;;7.50;99.90;;;;;;5059975;28;20057;-43
2020/12/22 10:02:03;;;;;;;66.82;36.95;;;7.60;99.90;;;;;;5067019;28;20119;-43
2020/12/22 10:04:32;;;;;;;66.25;32.30;;;7.60;99.90;;;;;;5053959;28;20474;-43
2020/12/22 10:07:01;;;;;;;60.53;32.08;;;7.60;99.90;;;;;;5069902;28;20037;-44
2020/12/22 10:09:28;;;;;;;56.42;30.60;;;7.70;99.90;;;;;;5069013;28;20120;-44
2020/12/22 10:11:55;;;;;;;66.75;33.30;;;7.70;99.90;;;;;;5070870;28;20044;-44
2020/12/22 10:14:21;;;;;;;61.83;31.80;;;7.70;99.90;;;;;;5068137;28;20496;-43
2020/12/22 10:16:48;;;;;;;67.85;37.10;;;7.70;99.90;;;;;;5070976;28;20418;-43
2020/12/22 10:19:15;;;;;;;72.25;36.90;;;7.70;99.90;;;;;;5069203;28;20040;-44
2020/12/22 10:21:42;;;;;;;63.30;37.03;;;7.70;99.90;;;;;;5069628;28;20470;-44
2020/12/22 10:24:09;;;;;;;74.13;41.70;;;7.80;99.90;;;;;;5067819;28;20045;-43
2020/12/22 10:26:35;;;;;;;60.40;34.10;;;7.80;99.90;;;;;;5068473;28;20053;-43
2020/12/22 10:29:03;;;;;;;73.35;38.08;;;7.90;99.90;;;;;;5070239;28;20055;-43
2020/12/22 10:31:30;;;;;;;61.13;33.35;;;7.90;99.90;;;;;;5068196;28;20406;-44
2020/12/22 10:33:58;;;;;;;70.70;35.92;;;7.90;99.90;;;;;;5070225;28;20119;-43
2020/12/22 10:36:26;;;;;;;65.35;34.35;;;7.90;99.90;;;;;;5068607;28;20074;-43
2020/12/22 10:38:54;;;;;;;67.47;36.28;;;8.00;99.90;;;;;;5069192;28;20155;-44
2020/12/22 10:41:21;;;;;;;74.68;42.60;;;8.00;99.90;;;;;;5063796;28;20052;-43
2020/12/22 10:43:49;;;;;;;69.18;37.78;;;8.00;99.90;;;;;;5056692;28;20064;-44
2020/12/22 10:46:16;;;;;;;57.42;30.92;;;8.00;99.90;;;;;;5068240;28;20059;-44
2020/12/22 10:48:44;;;;;;;61.03;28.83;;;8.10;99.90;;;;;;5062389;28;20045;-43
2020/12/22 10:51:12;;;;;;;56.90;30.10;;;8.00;99.90;;;;;;5069861;28;20059;-43
2020/12/22 10:53:39;;;;;;;57.08;28.35;;;8.10;99.90;;;;;;5068256;28;20040;-43
2020/12/22 10:56:16;;;;;;;42.38;22.95;;;8.10;99.90;;;;;;5067592;28;20059;-43
2020/12/22 10:58:44;;;;;;;45.28;25.13;;;8.00;99.90;;;;;;5069741;28;20045;-44
2020/12/22 11:01:15;;;;;;;42.30;21.95;;;8.10;99.90;;;;;;5069666;28;20097;-43
2020/12/22 11:03:45;;;;;;;35.45;19.67;;;8.10;99.90;;;;;;5069167;28;20088;-44
2020/12/22 11:06:27;;;;;;;30.52;15.88;;;8.10;99.90;;;;;;5068160;28;20058;-44
2020/12/22 11:08:54;;;;;;;23.08;14.63;;;8.20;99.90;;;;;;5067686;28;20074;-43
2020/12/22 11:11:21;;;;;;;28.70;14.60;;;8.20;99.90;;;;;;5070098;28;20048;-44
2020/12/22 11:13:48;;;;;;;34.83;16.88;;;8.20;99.90;;;;;;5057389;28;20481;-44
2020/12/22 11:16:14;;;;;;;32.05;15.82;;;8.20;99.90;;;;;;5069838;28;20382;-43
2020/12/22 11:18:41;;;;;;;41.92;18.45;;;8.30;99.90;;;;;;5068643;28;20045;-44
2020/12/22 11:21:12;;;;;;;48.85;23.63;;;8.30;99.90;;;;;;5057751;28;20061;-44
2020/12/22 11:23:46;;;;;;;44.80;21.55;;;8.20;99.90;;;;;;5070677;28;20117;-44
2020/12/22 11:26:25;;;;;;;36.08;19.27;;;8.20;99.90;;;;;;5068356;28;20049;-44
2020/12/22 11:28:52;;;;;;;43.65;19.50;;;8.30;99.90;;;;;;5071566;28;20059;-43
2020/12/22 11:31:20;;;;;;;31.52;17.58;;;8.30;99.90;;;;;;5065470;28;20045;-43
2020/12/22 11:33:46;;;;;;;40.10;19.92;;;8.30;99.90;;;;;;5083957;28;20048;-44
2020/12/22 11:36:18;;;;;;;37.97;19.70;;;8.30;99.90;;;;;;5073319;28;20078;-43
2020/12/22 11:38:46;;;;;;;36.13;19.13;;;8.40;99.90;;;;;;5073182;28;20473;-44
2020/12/22 11:41:22;;;;;;;44.42;22.17;;;8.40;99.90;;;;;;5070639;28;20126;-43
2020/12/22 11:43:50;;;;;;;39.63;19.88;;;8.50;99.90;;;;;;5055674;28;20052;-44
2020/12/22 11:46:16;;;;;;;40.95;20.85;;;8.60;99.90;;;;;;5073679;28;20048;-43
2020/12/22 11:48:44;;;;;;;42.47;21.20;;;8.70;99.90;;;;;;5062664;28;20470;-44
2020/12/22 11:51:14;;;;;;;44.90;21.38;;;8.70;99.90;;;;;;5071119;28;20047;-44
2020/12/22 11:53:42;;;;;;;36.58;19.25;;;8.70;99.90;;;;;;5067337;28;20057;-43
2020/12/22 11:56:10;;;;;;;34.03;17.30;;;8.70;99.90;;;;;;5071466;28;20071;-43
2020/12/22 11:58:37;;;;;;;38.25;19.30;;;8.60;99.90;;;;;;5071571;28;20059;-44
2020/12/22 12:01:03;;;;;;;35.75;19.23;;;8.70;99.90;;;;;;5061059;28;20493;-44
2020/12/22 12:03:30;;;;;;;43.20;22.77;;;8.70;99.90;;;;;;5068776;28;20091;-43
2020/12/22 12:05:56;;;;;;;37.15;18.92;;;8.70;99.90;;;;;;5055668;28;20088;-44
2020/12/22 12:08:23;;;;;;;43.13;21.45;;;8.70;99.90;;;;;;5072186;28;20041;-44
2020/12/22 12:10:49;;;;;;;28.55;17.00;;;8.70;99.90;;;;;;5072037;28;20040;-43
2020/12/22 12:13:16;;;;;;;31.23;17.10;;;8.80;99.90;;;;;;5072945;28;20044;-44
2020/12/22 12:15:43;;;;;;;38.22;20.23;;;8.80;99.90;;;;;;5070708;28;20048;-43
2020/12/22 12:18:09;;;;;;;31.48;15.18;;;8.80;99.90;;;;;;5073916;28;20053;-43
2020/12/22 12:20:36;;;;;;;28.75;14.82;;;8.90;99.90;;;;;;5070968;28;20059;-43
2020/12/22 12:23:02;;;;;;;19.50;13.35;;;9.00;99.90;;;;;;5077457;28;20060;-52
2020/12/22 12:25:30;;;;;;;26.35;15.90;;;9.00;99.90;;;;;;5078229;28;20117;-52
2020/12/22 12:27:56;;;;;;;22.75;14.70;;;9.10;99.90;;;;;;5079517;28;20409;-53
2020/12/22 12:30:23;;;;;;;26.33;13.18;;;9.10;99.90;;;;;;5066970;28;20481;-53
2020/12/22 12:32:50;;;;;;;20.38;11.65;;;9.20;99.90;;;;;;5070882;28;20042;-52
2020/12/22 12:35:16;;;;;;;14.20;9.38;;;9.10;99.90;;;;;;5066321;28;20048;-52
2020/12/22 12:37:47;;;;;;;20.27;11.38;;;9.20;99.90;;;;;;5069884;28;20052;-52
2020/12/22 12:40:13;;;;;;;24.35;14.18;;;9.20;99.90;;;;;;5058706;28;20056;-52
2020/12/22 12:42:40;;;;;;;22.48;12.73;;;9.10;99.90;;;;;;5065184;28;20099;-52
2020/12/22 12:45:07;;;;;;;20.00;12.18;;;9.20;99.90;;;;;;5059599;28;20056;-52
2020/12/22 12:47:34;;;;;;;22.30;12.30;;;9.20;99.90;;;;;;5069563;28;20045;-53